sensor_id;sensor_type;location;lat;lon;timestamp;P1;durP1;ratioP1;P2;durP2;ratioP2
2868;SDS011;1442;47.448;8.582;2023-04-30T00:02:26;8.90;;;5.55;;
2868;SDS011;1442;47.448;8.582;2023-04-30T00:04:55;8.95;;;5.63;;
2868;SDS011;1442;47.448;8.582;2023-04-30T00:07:22;7.82;;;5.70;;
2868;SDS011;1442;47.448;8.582;2023-04-30T00:09:49;8.00;;;5.68;;
2868;SDS011;1442;47.448;8.582;2023-04-30T00:12:16;8.20;;;5.03;;
2868;SDS011;1442;47.448;8.582;2023-04-30T00:14:43;10.75;;;4.97;;
2868;SDS011;1442;47.448;8.582;2023-04-30T00:17:10;10.60;;;5.57;;
2868;SDS011;1442;47.448;8.582;2023-04-30T00:19:37;10.38;;;6.57;;
2868;SDS011;1442;47.448;8.582;2023-04-30T00:22:06;8.25;;;5.40;;
2868;SDS011;1442;47.448;8.582;2023-04-30T00:24:33;8.38;;;6.32;;
2868;SDS011;1442;47.448;8.582;2023-04-30T00:27:00;8.25;;;5.88;;
2868;SDS011;1442;47.448;8.582;2023-04-30T00:29:27;15.75;;;6.40;;
2868;SDS011;1442;47.448;8.582;2023-04-30T00:31:54;7.97;;;5.90;;
2868;SDS011;1442;47.448;8.582;2023-04-30T00:34:22;12.30;;;6.05;;
2868;SDS011;1442;47.448;8.582;2023-04-30T00:36:49;10.07;;;5.93;;
2868;SDS011;1442;47.448;8.582;2023-04-30T00:39:17;10.25;;;6.82;;
2868;SDS011;1442;47.448;8.582;2023-04-30T00:41:44;8.77;;;6.15;;
2868;SDS011;1442;47.448;8.582;2023-04-30T00:44:12;8.93;;;6.97;;
2868;SDS011;1442;47.448;8.582;2023-04-30T00:46:39;9.23;;;5.70;;
2868;SDS011;1442;47.448;8.582;2023-04-30T00:49:06;8.35;;;6.22;;
2868;SDS011;1442;47.448;8.582;2023-04-30T00:51:33;10.77;;;7.30;;
2868;SDS011;1442;47.448;8.582;2023-04-30T00:54:01;15.43;;;7.28;;
2868;SDS011;1442;47.448;8.582;2023-04-30T00:56:30;9.70;;;7.07;;
2868;SDS011;1442;47.448;8.582;2023-04-30T00:58:57;10.52;;;6.22;;
2868;SDS011;1442;47.448;8.582;2023-04-30T01:01:25;13.02;;;7.35;;
2868;SDS011;1442;47.448;8.582;2023-04-30T01:03:53;7.57;;;6.22;;
2868;SDS011;1442;47.448;8.582;2023-04-30T01:06:20;9.30;;;6.72;;
2868;SDS011;1442;47.448;8.582;2023-04-30T01:08:47;10.98;;;7.03;;
2868;SDS011;1442;47.448;8.582;2023-04-30T01:11:20;10.07;;;6.72;;
2868;SDS011;1442;47.448;8.582;2023-04-30T01:13:52;8.95;;;6.40;;
2868;SDS011;1442;47.448;8.582;2023-04-30T01:16:21;9.65;;;6.82;;
2868;SDS011;1442;47.448;8.582;2023-04-30T01:18:50;10.98;;;7.28;;
2868;SDS011;1442;47.448;8.582;2023-04-30T01:21:18;11.07;;;7.32;;
2868;SDS011;1442;47.448;8.582;2023-04-30T01:23:54;10.13;;;6.60;;
2868;SDS011;1442;47.448;8.582;2023-04-30T01:26:33;9.18;;;5.80;;
2868;SDS011;1442;47.448;8.582;2023-04-30T01:29:05;10.90;;;7.13;;
2868;SDS011;1442;47.448;8.582;2023-04-30T01:31:32;10.35;;;7.40;;
2868;SDS011;1442;47.448;8.582;2023-04-30T01:33:59;9.95;;;6.13;;
2868;SDS011;1442;47.448;8.582;2023-04-30T01:36:35;10.73;;;7.03;;
2868;SDS011;1442;47.448;8.582;2023-04-30T01:41:49;10.80;;;6.68;;
2868;SDS011;1442;47.448;8.582;2023-04-30T01:44:31;9.75;;;6.82;;
2868;SDS011;1442;47.448;8.582;2023-04-30T01:47:05;8.23;;;6.13;;
2868;SDS011;1442;47.448;8.582;2023-04-30T01:49:36;11.43;;;6.70;;
2868;SDS011;1442;47.448;8.582;2023-04-30T01:52:08;9.40;;;6.82;;
2868;SDS011;1442;47.448;8.582;2023-04-30T01:54:40;8.25;;;6.22;;
2868;SDS011;1442;47.448;8.582;2023-04-30T01:57:11;9.57;;;6.57;;
2868;SDS011;1442;47.448;8.582;2023-04-30T01:59:40;11.82;;;7.00;;
2868;SDS011;1442;47.448;8.582;2023-04-30T02:02:08;10.40;;;6.65;;
2868;SDS011;1442;47.448;8.582;2023-04-30T02:04:35;10.93;;;6.95;;
2868;SDS011;1442;47.448;8.582;2023-04-30T02:07:03;8.32;;;6.20;;
2868;SDS011;1442;47.448;8.582;2023-04-30T02:09:30;8.98;;;6.30;;
2868;SDS011;1442;47.448;8.582;2023-04-30T02:11:57;9.45;;;6.75;;
2868;SDS011;1442;47.448;8.582;2023-04-30T02:14:24;12.23;;;6.63;;
2868;SDS011;1442;47.448;8.582;2023-04-30T02:16:53;9.95;;;6.25;;
2868;SDS011;1442;47.448;8.582;2023-04-30T02:19:20;9.63;;;6.32;;
2868;SDS011;1442;47.448;8.582;2023-04-30T02:21:47;9.73;;;6.57;;
2868;SDS011;1442;47.448;8.582;2023-04-30T02:24:14;11.40;;;6.55;;
2868;SDS011;1442;47.448;8.582;2023-04-30T02:26:41;8.63;;;5.95;;
2868;SDS011;1442;47.448;8.582;2023-04-30T02:29:09;10.18;;;6.95;;
2868;SDS011;1442;47.448;8.582;2023-04-30T02:31:36;9.48;;;6.70;;
2868;SDS011;1442;47.448;8.582;2023-04-30T02:34:04;8.60;;;6.15;;
2868;SDS011;1442;47.448;8.582;2023-04-30T02:36:31;8.90;;;6.13;;
2868;SDS011;1442;47.448;8.582;2023-04-30T02:39:00;9.07;;;6.25;;
2868;SDS011;1442;47.448;8.582;2023-04-30T02:41:27;10.45;;;6.95;;
2868;SDS011;1442;47.448;8.582;2023-04-30T02:43:54;9.82;;;6.47;;
2868;SDS011;1442;47.448;8.582;2023-04-30T02:46:22;14.80;;;6.60;;
2868;SDS011;1442;47.448;8.582;2023-04-30T02:48:49;8.85;;;5.90;;
2868;SDS011;1442;47.448;8.582;2023-04-30T02:51:17;10.57;;;6.93;;
2868;SDS011;1442;47.448;8.582;2023-04-30T02:53:44;8.60;;;6.32;;
2868;SDS011;1442;47.448;8.582;2023-04-30T02:56:11;9.00;;;6.68;;
2868;SDS011;1442;47.448;8.582;2023-04-30T02:58:38;11.38;;;6.28;;
2868;SDS011;1442;47.448;8.582;2023-04-30T03:01:06;10.57;;;6.78;;
2868;SDS011;1442;47.448;8.582;2023-04-30T03:03:33;9.25;;;5.70;;
2868;SDS011;1442;47.448;8.582;2023-04-30T03:06:00;12.13;;;6.22;;
2868;SDS011;1442;47.448;8.582;2023-04-30T03:08:28;9.52;;;6.78;;
2868;SDS011;1442;47.448;8.582;2023-04-30T03:10:55;13.90;;;7.13;;
2868;SDS011;1442;47.448;8.582;2023-04-30T03:13:23;10.32;;;6.65;;
2868;SDS011;1442;47.448;8.582;2023-04-30T03:15:55;12.68;;;6.40;;
2868;SDS011;1442;47.448;8.582;2023-04-30T03:18:23;8.85;;;6.05;;
2868;SDS011;1442;47.448;8.582;2023-04-30T03:20:50;11.27;;;6.38;;
2868;SDS011;1442;47.448;8.582;2023-04-30T03:23:17;9.35;;;6.35;;
2868;SDS011;1442;47.448;8.582;2023-04-30T03:25:46;9.55;;;6.43;;
2868;SDS011;1442;47.448;8.582;2023-04-30T03:28:13;10.40;;;6.07;;
2868;SDS011;1442;47.448;8.582;2023-04-30T03:30:40;10.50;;;6.70;;
2868;SDS011;1442;47.448;8.582;2023-04-30T03:33:07;9.63;;;6.18;;
2868;SDS011;1442;47.448;8.582;2023-04-30T03:35:35;10.57;;;6.72;;
2868;SDS011;1442;47.448;8.582;2023-04-30T03:38:02;13.23;;;7.65;;
2868;SDS011;1442;47.448;8.582;2023-04-30T03:40:29;9.45;;;6.55;;
2868;SDS011;1442;47.448;8.582;2023-04-30T03:42:57;9.55;;;7.22;;
2868;SDS011;1442;47.448;8.582;2023-04-30T03:45:25;9.85;;;6.57;;
2868;SDS011;1442;47.448;8.582;2023-04-30T03:47:52;9.07;;;6.40;;
2868;SDS011;1442;47.448;8.582;2023-04-30T03:50:19;12.98;;;7.15;;
2868;SDS011;1442;47.448;8.582;2023-04-30T03:52:46;10.75;;;7.30;;
2868;SDS011;1442;47.448;8.582;2023-04-30T03:55:13;9.43;;;6.70;;
2868;SDS011;1442;47.448;8.582;2023-04-30T03:57:41;11.38;;;7.38;;
2868;SDS011;1442;47.448;8.582;2023-04-30T04:00:10;13.00;;;7.53;;
2868;SDS011;1442;47.448;8.582;2023-04-30T04:02:37;10.23;;;7.07;;
2868;SDS011;1442;47.448;8.582;2023-04-30T04:05:04;12.85;;;6.80;;
2868;SDS011;1442;47.448;8.582;2023-04-30T04:07:32;13.38;;;6.88;;
2868;SDS011;1442;47.448;8.582;2023-04-30T04:09:59;9.38;;;7.00;;
2868;SDS011;1442;47.448;8.582;2023-04-30T04:12:26;10.70;;;7.00;;
2868;SDS011;1442;47.448;8.582;2023-04-30T04:14:55;12.45;;;7.38;;
2868;SDS011;1442;47.448;8.582;2023-04-30T04:17:24;8.57;;;6.10;;
2868;SDS011;1442;47.448;8.582;2023-04-30T04:19:51;9.85;;;6.70;;
2868;SDS011;1442;47.448;8.582;2023-04-30T04:22:18;10.60;;;6.70;;
2868;SDS011;1442;47.448;8.582;2023-04-30T04:24:45;13.23;;;7.20;;
2868;SDS011;1442;47.448;8.582;2023-04-30T04:27:13;11.57;;;7.15;;
2868;SDS011;1442;47.448;8.582;2023-04-30T04:29:40;9.77;;;6.78;;
2868;SDS011;1442;47.448;8.582;2023-04-30T04:32:07;11.00;;;7.07;;
2868;SDS011;1442;47.448;8.582;2023-04-30T04:34:37;11.05;;;7.32;;
2868;SDS011;1442;47.448;8.582;2023-04-30T04:37:04;10.38;;;6.93;;
2868;SDS011;1442;47.448;8.582;2023-04-30T04:39:31;11.52;;;7.65;;
2868;SDS011;1442;47.448;8.582;2023-04-30T04:42:00;12.82;;;7.35;;
2868;SDS011;1442;47.448;8.582;2023-04-30T04:44:29;10.75;;;7.07;;
2868;SDS011;1442;47.448;8.582;2023-04-30T04:46:56;11.10;;;6.85;;
2868;SDS011;1442;47.448;8.582;2023-04-30T04:49:23;11.95;;;6.88;;
2868;SDS011;1442;47.448;8.582;2023-04-30T04:51:51;10.30;;;6.50;;
2868;SDS011;1442;47.448;8.582;2023-04-30T04:54:19;13.57;;;6.97;;
2868;SDS011;1442;47.448;8.582;2023-04-30T04:56:46;10.82;;;6.93;;
2868;SDS011;1442;47.448;8.582;2023-04-30T04:59:13;9.65;;;6.50;;
2868;SDS011;1442;47.448;8.582;2023-04-30T05:01:40;10.02;;;7.00;;
2868;SDS011;1442;47.448;8.582;2023-04-30T05:04:07;9.18;;;6.63;;
2868;SDS011;1442;47.448;8.582;2023-04-30T05:06:35;17.20;;;6.97;;
2868;SDS011;1442;47.448;8.582;2023-04-30T05:09:03;9.38;;;6.00;;
2868;SDS011;1442;47.448;8.582;2023-04-30T05:11:33;9.68;;;6.50;;
2868;SDS011;1442;47.448;8.582;2023-04-30T05:14:00;8.18;;;5.97;;
2868;SDS011;1442;47.448;8.582;2023-04-30T05:16:27;11.25;;;6.60;;
2868;SDS011;1442;47.448;8.582;2023-04-30T05:18:54;9.20;;;5.95;;
2868;SDS011;1442;47.448;8.582;2023-04-30T05:21:21;8.60;;;6.10;;
2868;SDS011;1442;47.448;8.582;2023-04-30T05:23:50;11.77;;;6.32;;
2868;SDS011;1442;47.448;8.582;2023-04-30T05:26:18;11.18;;;5.95;;
2868;SDS011;1442;47.448;8.582;2023-04-30T05:28:48;8.20;;;5.68;;
2868;SDS011;1442;47.448;8.582;2023-04-30T05:31:16;8.90;;;5.97;;
2868;SDS011;1442;47.448;8.582;2023-04-30T05:33:43;10.20;;;6.47;;
2868;SDS011;1442;47.448;8.582;2023-04-30T05:36:10;16.15;;;6.80;;
2868;SDS011;1442;47.448;8.582;2023-04-30T05:38:37;10.75;;;6.72;;
2868;SDS011;1442;47.448;8.582;2023-04-30T05:41:04;12.43;;;6.60;;
2868;SDS011;1442;47.448;8.582;2023-04-30T05:43:33;9.98;;;6.28;;
2868;SDS011;1442;47.448;8.582;2023-04-30T05:46:00;9.10;;;6.10;;
2868;SDS011;1442;47.448;8.582;2023-04-30T05:48:27;10.32;;;6.22;;
2868;SDS011;1442;47.448;8.582;2023-04-30T05:50:55;12.45;;;5.85;;
2868;SDS011;1442;47.448;8.582;2023-04-30T05:53:22;10.23;;;6.63;;
2868;SDS011;1442;47.448;8.582;2023-04-30T05:55:49;8.63;;;5.90;;
2868;SDS011;1442;47.448;8.582;2023-04-30T05:58:16;8.77;;;5.95;;
2868;SDS011;1442;47.448;8.582;2023-04-30T06:00:47;10.23;;;6.68;;
2868;SDS011;1442;47.448;8.582;2023-04-30T06:03:14;10.90;;;6.60;;
2868;SDS011;1442;47.448;8.582;2023-04-30T06:05:41;7.68;;;5.88;;
2868;SDS011;1442;47.448;8.582;2023-04-30T06:08:08;10.15;;;5.57;;
2868;SDS011;1442;47.448;8.582;2023-04-30T06:10:36;8.02;;;6.35;;
2868;SDS011;1442;47.448;8.582;2023-04-30T06:13:03;10.40;;;6.03;;
2868;SDS011;1442;47.448;8.582;2023-04-30T06:15:30;12.38;;;5.53;;
2868;SDS011;1442;47.448;8.582;2023-04-30T06:17:59;9.68;;;6.03;;
2868;SDS011;1442;47.448;8.582;2023-04-30T06:20:26;7.97;;;5.80;;
2868;SDS011;1442;47.448;8.582;2023-04-30T06:22:53;8.63;;;5.63;;
2868;SDS011;1442;47.448;8.582;2023-04-30T06:25:20;8.57;;;5.45;;
2868;SDS011;1442;47.448;8.582;2023-04-30T06:27:47;8.50;;;5.95;;
2868;SDS011;1442;47.448;8.582;2023-04-30T06:30:15;9.35;;;6.40;;
2868;SDS011;1442;47.448;8.582;2023-04-30T06:32:43;8.48;;;6.00;;
2868;SDS011;1442;47.448;8.582;2023-04-30T06:35:11;9.32;;;5.80;;
2868;SDS011;1442;47.448;8.582;2023-04-30T06:37:38;9.30;;;5.78;;
2868;SDS011;1442;47.448;8.582;2023-04-30T06:40:06;8.82;;;6.28;;
2868;SDS011;1442;47.448;8.582;2023-04-30T06:42:33;7.22;;;5.75;;
2868;SDS011;1442;47.448;8.582;2023-04-30T06:45:01;10.10;;;5.82;;
2868;SDS011;1442;47.448;8.582;2023-04-30T06:47:30;10.02;;;6.05;;
2868;SDS011;1442;47.448;8.582;2023-04-30T06:49:58;8.18;;;5.40;;
2868;SDS011;1442;47.448;8.582;2023-04-30T06:52:27;8.95;;;5.55;;
2868;SDS011;1442;47.448;8.582;2023-04-30T06:54:54;8.27;;;5.60;;
2868;SDS011;1442;47.448;8.582;2023-04-30T06:57:21;9.05;;;5.90;;
2868;SDS011;1442;47.448;8.582;2023-04-30T06:59:48;7.47;;;6.20;;
2868;SDS011;1442;47.448;8.582;2023-04-30T07:02:15;9.55;;;5.85;;
2868;SDS011;1442;47.448;8.582;2023-04-30T07:04:42;8.00;;;5.85;;
2868;SDS011;1442;47.448;8.582;2023-04-30T07:07:10;9.23;;;6.18;;
2868;SDS011;1442;47.448;8.582;2023-04-30T07:09:38;10.77;;;6.40;;
2868;SDS011;1442;47.448;8.582;2023-04-30T07:12:05;7.68;;;5.68;;
2868;SDS011;1442;47.448;8.582;2023-04-30T07:14:32;9.00;;;6.13;;
2868;SDS011;1442;47.448;8.582;2023-04-30T07:17:00;9.68;;;6.22;;
2868;SDS011;1442;47.448;8.582;2023-04-30T07:19:27;8.07;;;6.18;;
2868;SDS011;1442;47.448;8.582;2023-04-30T07:21:54;10.65;;;5.88;;
2868;SDS011;1442;47.448;8.582;2023-04-30T07:24:21;8.85;;;5.90;;
2868;SDS011;1442;47.448;8.582;2023-04-30T07:26:49;9.07;;;6.28;;
2868;SDS011;1442;47.448;8.582;2023-04-30T07:29:16;11.57;;;6.40;;
2868;SDS011;1442;47.448;8.582;2023-04-30T07:31:44;11.15;;;6.32;;
2868;SDS011;1442;47.448;8.582;2023-04-30T07:34:11;10.95;;;6.97;;
2868;SDS011;1442;47.448;8.582;2023-04-30T07:36:38;8.98;;;6.20;;
2868;SDS011;1442;47.448;8.582;2023-04-30T07:39:05;10.98;;;6.10;;
2868;SDS011;1442;47.448;8.582;2023-04-30T07:41:33;8.07;;;6.07;;
2868;SDS011;1442;47.448;8.582;2023-04-30T07:44:01;9.15;;;6.00;;
2868;SDS011;1442;47.448;8.582;2023-04-30T07:46:28;9.50;;;7.03;;
2868;SDS011;1442;47.448;8.582;2023-04-30T07:48:55;10.52;;;6.40;;
2868;SDS011;1442;47.448;8.582;2023-04-30T07:51:23;8.52;;;6.80;;
2868;SDS011;1442;47.448;8.582;2023-04-30T07:53:50;7.22;;;6.13;;
2868;SDS011;1442;47.448;8.582;2023-04-30T07:56:18;8.30;;;6.00;;
2868;SDS011;1442;47.448;8.582;2023-04-30T07:58:45;6.38;;;5.53;;
2868;SDS011;1442;47.448;8.582;2023-04-30T08:01:14;7.57;;;5.53;;
2868;SDS011;1442;47.448;8.582;2023-04-30T08:03:41;9.05;;;6.00;;
2868;SDS011;1442;47.448;8.582;2023-04-30T08:06:08;8.23;;;5.82;;
2868;SDS011;1442;47.448;8.582;2023-04-30T08:08:35;9.25;;;6.32;;
2868;SDS011;1442;47.448;8.582;2023-04-30T08:11:03;10.52;;;6.53;;
2868;SDS011;1442;47.448;8.582;2023-04-30T08:13:30;8.73;;;5.88;;
2868;SDS011;1442;47.448;8.582;2023-04-30T08:15:58;7.50;;;5.80;;
2868;SDS011;1442;47.448;8.582;2023-04-30T08:18:27;11.05;;;6.13;;
2868;SDS011;1442;47.448;8.582;2023-04-30T08:20:55;8.77;;;6.45;;
2868;SDS011;1442;47.448;8.582;2023-04-30T08:23:22;7.82;;;6.53;;
2868;SDS011;1442;47.448;8.582;2023-04-30T08:25:49;8.13;;;6.25;;
2868;SDS011;1442;47.448;8.582;2023-04-30T08:28:16;7.65;;;5.95;;
2868;SDS011;1442;47.448;8.582;2023-04-30T08:30:44;6.75;;;5.90;;
2868;SDS011;1442;47.448;8.582;2023-04-30T08:33:11;9.55;;;6.68;;
2868;SDS011;1442;47.448;8.582;2023-04-30T08:35:40;9.50;;;5.95;;
2868;SDS011;1442;47.448;8.582;2023-04-30T08:38:07;8.25;;;6.65;;
2868;SDS011;1442;47.448;8.582;2023-04-30T08:40:34;12.95;;;6.53;;
2868;SDS011;1442;47.448;8.582;2023-04-30T08:43:04;7.28;;;6.22;;
2868;SDS011;1442;47.448;8.582;2023-04-30T08:45:31;8.52;;;5.63;;
2868;SDS011;1442;47.448;8.582;2023-04-30T08:47:59;8.85;;;6.13;;
2868;SDS011;1442;47.448;8.582;2023-04-30T08:50:27;9.55;;;6.80;;
2868;SDS011;1442;47.448;8.582;2023-04-30T08:52:55;8.25;;;6.50;;
2868;SDS011;1442;47.448;8.582;2023-04-30T08:55:23;9.45;;;6.30;;
2868;SDS011;1442;47.448;8.582;2023-04-30T08:57:51;8.48;;;5.93;;
2868;SDS011;1442;47.448;8.582;2023-04-30T09:00:18;7.80;;;6.00;;
2868;SDS011;1442;47.448;8.582;2023-04-30T09:02:45;7.70;;;5.55;;
2868;SDS011;1442;47.448;8.582;2023-04-30T09:05:13;7.55;;;6.43;;
2868;SDS011;1442;47.448;8.582;2023-04-30T09:07:42;8.35;;;6.10;;
2868;SDS011;1442;47.448;8.582;2023-04-30T09:10:16;7.63;;;6.05;;
2868;SDS011;1442;47.448;8.582;2023-04-30T09:12:45;8.98;;;6.93;;
2868;SDS011;1442;47.448;8.582;2023-04-30T09:15:23;10.50;;;6.30;;
2868;SDS011;1442;47.448;8.582;2023-04-30T09:17:53;9.98;;;6.78;;
2868;SDS011;1442;47.448;8.582;2023-04-30T09:20:31;8.13;;;6.00;;
2868;SDS011;1442;47.448;8.582;2023-04-30T09:23:04;8.35;;;6.53;;
2868;SDS011;1442;47.448;8.582;2023-04-30T09:25:38;11.40;;;6.30;;
2868;SDS011;1442;47.448;8.582;2023-04-30T09:28:06;6.32;;;5.60;;
2868;SDS011;1442;47.448;8.582;2023-04-30T09:30:33;10.10;;;6.05;;
2868;SDS011;1442;47.448;8.582;2023-04-30T09:33:01;10.82;;;5.88;;
2868;SDS011;1442;47.448;8.582;2023-04-30T09:35:28;6.47;;;5.78;;
2868;SDS011;1442;47.448;8.582;2023-04-30T09:37:55;10.52;;;6.15;;
2868;SDS011;1442;47.448;8.582;2023-04-30T09:40:31;9.90;;;6.25;;
2868;SDS011;1442;47.448;8.582;2023-04-30T09:42:59;6.78;;;5.03;;
2868;SDS011;1442;47.448;8.582;2023-04-30T09:45:37;5.97;;;4.60;;
2868;SDS011;1442;47.448;8.582;2023-04-30T09:48:05;6.30;;;4.40;;
2868;SDS011;1442;47.448;8.582;2023-04-30T09:50:36;6.07;;;4.78;;
2868;SDS011;1442;47.448;8.582;2023-04-30T09:53:06;11.30;;;4.93;;
2868;SDS011;1442;47.448;8.582;2023-04-30T09:55:34;5.75;;;4.90;;
2868;SDS011;1442;47.448;8.582;2023-04-30T09:58:03;5.82;;;4.55;;
2868;SDS011;1442;47.448;8.582;2023-04-30T10:00:32;9.02;;;4.25;;
2868;SDS011;1442;47.448;8.582;2023-04-30T10:03:00;8.57;;;5.28;;
2868;SDS011;1442;47.448;8.582;2023-04-30T10:05:27;7.03;;;5.28;;
2868;SDS011;1442;47.448;8.582;2023-04-30T10:07:54;5.97;;;4.45;;
2868;SDS011;1442;47.448;8.582;2023-04-30T10:10:22;5.15;;;4.22;;
2868;SDS011;1442;47.448;8.582;2023-04-30T10:12:52;6.05;;;3.95;;
2868;SDS011;1442;47.448;8.582;2023-04-30T10:15:22;10.15;;;3.97;;
2868;SDS011;1442;47.448;8.582;2023-04-30T10:17:52;7.00;;;3.72;;
2868;SDS011;1442;47.448;8.582;2023-04-30T10:20:21;4.55;;;3.70;;
2868;SDS011;1442;47.448;8.582;2023-04-30T10:22:48;4.90;;;4.10;;
2868;SDS011;1442;47.448;8.582;2023-04-30T10:25:16;6.47;;;3.78;;
2868;SDS011;1442;47.448;8.582;2023-04-30T10:27:43;4.03;;;3.45;;
2868;SDS011;1442;47.448;8.582;2023-04-30T10:30:11;5.45;;;3.58;;
2868;SDS011;1442;47.448;8.582;2023-04-30T10:32:43;4.47;;;3.40;;
2868;SDS011;1442;47.448;8.582;2023-04-30T10:35:15;4.55;;;3.72;;
2868;SDS011;1442;47.448;8.582;2023-04-30T10:37:45;5.25;;;3.33;;
2868;SDS011;1442;47.448;8.582;2023-04-30T10:40:13;4.57;;;3.53;;
2868;SDS011;1442;47.448;8.582;2023-04-30T10:42:44;4.32;;;3.65;;
2868;SDS011;1442;47.448;8.582;2023-04-30T10:45:11;4.47;;;3.30;;
2868;SDS011;1442;47.448;8.582;2023-04-30T10:47:42;2.97;;;2.67;;
2868;SDS011;1442;47.448;8.582;2023-04-30T10:52:37;4.68;;;3.30;;
2868;SDS011;1442;47.448;8.582;2023-04-30T10:55:05;5.55;;;3.42;;
2868;SDS011;1442;47.448;8.582;2023-04-30T10:57:39;4.85;;;3.00;;
2868;SDS011;1442;47.448;8.582;2023-04-30T11:00:21;3.47;;;2.83;;
2868;SDS011;1442;47.448;8.582;2023-04-30T11:02:54;4.00;;;3.40;;
2868;SDS011;1442;47.448;8.582;2023-04-30T11:05:24;4.90;;;3.13;;
2868;SDS011;1442;47.448;8.582;2023-04-30T11:08:00;3.20;;;2.88;;
2868;SDS011;1442;47.448;8.582;2023-04-30T11:10:32;3.30;;;2.45;;
2868;SDS011;1442;47.448;8.582;2023-04-30T11:13:02;4.88;;;2.95;;
2868;SDS011;1442;47.448;8.582;2023-04-30T11:15:32;3.20;;;2.83;;
2868;SDS011;1442;47.448;8.582;2023-04-30T11:18:02;3.53;;;2.67;;
2868;SDS011;1442;47.448;8.582;2023-04-30T11:20:29;4.57;;;2.58;;
2868;SDS011;1442;47.448;8.582;2023-04-30T11:23:09;4.22;;;2.58;;
2868;SDS011;1442;47.448;8.582;2023-04-30T11:25:40;2.80;;;2.40;;
2868;SDS011;1442;47.448;8.582;2023-04-30T11:28:07;4.82;;;2.58;;
2868;SDS011;1442;47.448;8.582;2023-04-30T11:30:34;2.70;;;2.40;;
2868;SDS011;1442;47.448;8.582;2023-04-30T11:33:04;4.00;;;2.80;;
2868;SDS011;1442;47.448;8.582;2023-04-30T11:35:31;2.92;;;2.63;;
2868;SDS011;1442;47.448;8.582;2023-04-30T11:37:58;3.92;;;2.60;;
2868;SDS011;1442;47.448;8.582;2023-04-30T11:40:25;3.30;;;2.50;;
2868;SDS011;1442;47.448;8.582;2023-04-30T11:42:54;3.70;;;2.90;;
2868;SDS011;1442;47.448;8.582;2023-04-30T11:45:21;3.13;;;2.38;;
2868;SDS011;1442;47.448;8.582;2023-04-30T11:47:49;2.60;;;2.40;;
2868;SDS011;1442;47.448;8.582;2023-04-30T11:50:19;2.20;;;2.00;;
2868;SDS011;1442;47.448;8.582;2023-04-30T11:52:51;3.95;;;2.40;;
2868;SDS011;1442;47.448;8.582;2023-04-30T11:55:19;2.47;;;2.20;;
2868;SDS011;1442;47.448;8.582;2023-04-30T11:57:47;5.05;;;2.10;;
2868;SDS011;1442;47.448;8.582;2023-04-30T12:00:15;2.50;;;2.30;;
2868;SDS011;1442;47.448;8.582;2023-04-30T12:02:43;4.63;;;2.25;;
2868;SDS011;1442;47.448;8.582;2023-04-30T12:05:11;2.85;;;2.30;;
2868;SDS011;1442;47.448;8.582;2023-04-30T12:07:44;2.15;;;1.88;;
2868;SDS011;1442;47.448;8.582;2023-04-30T12:10:12;4.30;;;2.15;;
2868;SDS011;1442;47.448;8.582;2023-04-30T12:12:39;4.35;;;2.22;;
2868;SDS011;1442;47.448;8.582;2023-04-30T12:15:09;2.33;;;2.08;;
2868;SDS011;1442;47.448;8.582;2023-04-30T12:17:37;2.30;;;2.10;;
2868;SDS011;1442;47.448;8.582;2023-04-30T12:20:04;3.15;;;2.40;;
2868;SDS011;1442;47.448;8.582;2023-04-30T12:22:32;2.83;;;2.20;;
2868;SDS011;1442;47.448;8.582;2023-04-30T12:25:04;2.63;;;2.35;;
2868;SDS011;1442;47.448;8.582;2023-04-30T12:27:32;2.20;;;2.00;;
2868;SDS011;1442;47.448;8.582;2023-04-30T12:30:01;4.18;;;2.50;;
2868;SDS011;1442;47.448;8.582;2023-04-30T12:32:28;2.85;;;2.33;;
2868;SDS011;1442;47.448;8.582;2023-04-30T12:34:56;2.42;;;2.03;;
2868;SDS011;1442;47.448;8.582;2023-04-30T12:37:25;3.72;;;2.05;;
2868;SDS011;1442;47.448;8.582;2023-04-30T12:39:54;3.35;;;2.50;;
2868;SDS011;1442;47.448;8.582;2023-04-30T12:42:22;2.83;;;2.08;;
2868;SDS011;1442;47.448;8.582;2023-04-30T12:44:50;2.28;;;2.00;;
2868;SDS011;1442;47.448;8.582;2023-04-30T12:47:17;5.28;;;2.53;;
2868;SDS011;1442;47.448;8.582;2023-04-30T12:49:44;2.53;;;2.15;;
2868;SDS011;1442;47.448;8.582;2023-04-30T12:52:12;2.22;;;2.00;;
2868;SDS011;1442;47.448;8.582;2023-04-30T12:54:39;2.17;;;1.95;;
2868;SDS011;1442;47.448;8.582;2023-04-30T12:57:07;2.40;;;2.05;;
2868;SDS011;1442;47.448;8.582;2023-04-30T12:59:37;3.10;;;2.13;;
2868;SDS011;1442;47.448;8.582;2023-04-30T13:02:05;2.45;;;2.10;;
2868;SDS011;1442;47.448;8.582;2023-04-30T13:04:33;5.18;;;2.00;;
2868;SDS011;1442;47.448;8.582;2023-04-30T13:07:00;2.22;;;2.03;;
2868;SDS011;1442;47.448;8.582;2023-04-30T13:09:27;2.58;;;2.10;;
2868;SDS011;1442;47.448;8.582;2023-04-30T13:11:54;6.75;;;2.10;;
2868;SDS011;1442;47.448;8.582;2023-04-30T13:14:21;2.33;;;2.10;;
2868;SDS011;1442;47.448;8.582;2023-04-30T13:16:50;2.90;;;2.20;;
2868;SDS011;1442;47.448;8.582;2023-04-30T13:19:17;1.80;;;1.70;;
2868;SDS011;1442;47.448;8.582;2023-04-30T13:21:44;2.88;;;2.30;;
2868;SDS011;1442;47.448;8.582;2023-04-30T13:24:11;3.35;;;2.05;;
2868;SDS011;1442;47.448;8.582;2023-04-30T13:26:38;1.77;;;1.67;;
2868;SDS011;1442;47.448;8.582;2023-04-30T13:29:06;4.65;;;1.80;;
2868;SDS011;1442;47.448;8.582;2023-04-30T13:31:33;1.95;;;1.77;;
2868;SDS011;1442;47.448;8.582;2023-04-30T13:34:01;3.00;;;1.98;;
2868;SDS011;1442;47.448;8.582;2023-04-30T13:36:28;2.00;;;1.90;;
2868;SDS011;1442;47.448;8.582;2023-04-30T13:38:56;2.05;;;1.85;;
2868;SDS011;1442;47.448;8.582;2023-04-30T13:41:24;2.95;;;1.80;;
2868;SDS011;1442;47.448;8.582;2023-04-30T13:43:51;5.68;;;1.70;;
2868;SDS011;1442;47.448;8.582;2023-04-30T13:46:18;4.47;;;2.03;;
2868;SDS011;1442;47.448;8.582;2023-04-30T13:48:45;7.20;;;1.77;;
2868;SDS011;1442;47.448;8.582;2023-04-30T13:51:17;2.55;;;1.98;;
2868;SDS011;1442;47.448;8.582;2023-04-30T13:53:44;3.90;;;2.15;;
2868;SDS011;1442;47.448;8.582;2023-04-30T13:56:11;1.83;;;1.73;;
2868;SDS011;1442;47.448;8.582;2023-04-30T13:58:39;2.40;;;2.20;;
2868;SDS011;1442;47.448;8.582;2023-04-30T14:01:06;5.78;;;1.88;;
2868;SDS011;1442;47.448;8.582;2023-04-30T14:03:34;2.75;;;2.10;;
2868;SDS011;1442;47.448;8.582;2023-04-30T14:06:01;4.15;;;2.20;;
2868;SDS011;1442;47.448;8.582;2023-04-30T14:08:30;1.83;;;1.73;;
2868;SDS011;1442;47.448;8.582;2023-04-30T14:10:57;4.75;;;2.15;;
2868;SDS011;1442;47.448;8.582;2023-04-30T14:13:24;3.13;;;2.00;;
2868;SDS011;1442;47.448;8.582;2023-04-30T14:15:52;2.33;;;1.83;;
2868;SDS011;1442;47.448;8.582;2023-04-30T14:18:20;3.20;;;2.45;;
2868;SDS011;1442;47.448;8.582;2023-04-30T14:20:47;2.35;;;2.15;;
2868;SDS011;1442;47.448;8.582;2023-04-30T14:23:14;3.17;;;2.03;;
2868;SDS011;1442;47.448;8.582;2023-04-30T14:25:42;1.98;;;1.85;;
2868;SDS011;1442;47.448;8.582;2023-04-30T14:28:09;2.03;;;1.80;;
2868;SDS011;1442;47.448;8.582;2023-04-30T14:30:37;2.33;;;1.98;;
2868;SDS011;1442;47.448;8.582;2023-04-30T14:33:04;1.88;;;1.77;;
2868;SDS011;1442;47.448;8.582;2023-04-30T14:35:31;2.10;;;1.90;;
2868;SDS011;1442;47.448;8.582;2023-04-30T14:37:58;2.20;;;1.90;;
2868;SDS011;1442;47.448;8.582;2023-04-30T14:40:25;2.47;;;2.05;;
2868;SDS011;1442;47.448;8.582;2023-04-30T14:42:54;3.50;;;2.08;;
2868;SDS011;1442;47.448;8.582;2023-04-30T14:45:21;2.17;;;1.98;;
2868;SDS011;1442;47.448;8.582;2023-04-30T14:47:48;2.05;;;1.90;;
2868;SDS011;1442;47.448;8.582;2023-04-30T14:50:16;2.72;;;1.70;;
2868;SDS011;1442;47.448;8.582;2023-04-30T14:52:43;2.90;;;1.90;;
2868;SDS011;1442;47.448;8.582;2023-04-30T14:55:11;4.93;;;2.08;;
2868;SDS011;1442;47.448;8.582;2023-04-30T14:57:38;4.13;;;1.80;;
2868;SDS011;1442;47.448;8.582;2023-04-30T15:00:07;2.25;;;2.10;;
2868;SDS011;1442;47.448;8.582;2023-04-30T15:02:36;2.33;;;1.90;;
2868;SDS011;1442;47.448;8.582;2023-04-30T15:05:03;1.90;;;1.67;;
2868;SDS011;1442;47.448;8.582;2023-04-30T15:07:31;2.30;;;1.35;;
2868;SDS011;1442;47.448;8.582;2023-04-30T15:09:58;2.40;;;2.20;;
2868;SDS011;1442;47.448;8.582;2023-04-30T15:12:25;3.47;;;2.00;;
2868;SDS011;1442;47.448;8.582;2023-04-30T15:14:53;6.05;;;2.10;;
2868;SDS011;1442;47.448;8.582;2023-04-30T15:17:21;2.50;;;2.00;;
2868;SDS011;1442;47.448;8.582;2023-04-30T15:19:48;2.75;;;2.00;;
2868;SDS011;1442;47.448;8.582;2023-04-30T15:22:15;4.07;;;1.92;;
2868;SDS011;1442;47.448;8.582;2023-04-30T15:24:42;4.90;;;2.30;;